createdAt,value
2022-12-27T00:02:15.237Z,6.81
2022-12-27T00:04:41.900Z,6.77
2022-12-27T00:07:08.610Z,6.73
2022-12-27T00:09:35.375Z,6.69
2022-12-27T00:12:02.017Z,6.67
2022-12-27T00:14:28.660Z,6.65
2022-12-27T00:16:55.340Z,6.60
2022-12-27T00:19:22.040Z,6.57
2022-12-27T00:21:48.660Z,6.55
2022-12-27T00:24:15.811Z,6.53
2022-12-27T00:26:42.568Z,6.52
2022-12-27T00:29:10.217Z,6.50
2022-12-27T00:31:37.587Z,6.50
2022-12-27T00:34:06.671Z,6.46
2022-12-27T00:36:33.504Z,6.46
2022-12-27T00:39:00.711Z,6.43
2022-12-27T00:41:27.419Z,6.40
2022-12-27T00:43:54.190Z,6.39
2022-12-27T00:46:21.293Z,6.37
2022-12-27T00:48:47.890Z,6.36
2022-12-27T00:51:17.631Z,6.34
2022-12-27T00:53:45.097Z,6.32
2022-12-27T00:56:16.074Z,6.29
2022-12-27T00:58:43.387Z,6.29
2022-12-27T01:01:18.327Z,6.29
2022-12-27T01:03:45.977Z,6.27
2022-12-27T01:06:15.826Z,6.26
2022-12-27T01:08:43.400Z,6.24
2022-12-27T01:11:11.165Z,6.23
2022-12-27T01:13:38.684Z,6.21
2022-12-27T01:16:18.109Z,6.19
2022-12-27T01:18:45.612Z,6.14
2022-12-27T01:21:15.781Z,6.13
2022-12-27T01:23:42.830Z,6.12
2022-12-27T01:26:18.566Z,6.11
2022-12-27T01:28:46.437Z,6.09
2022-12-27T01:31:17.595Z,6.09
2022-12-27T01:33:44.623Z,6.09
2022-12-27T01:36:14.617Z,6.08
2022-12-27T01:38:45.080Z,6.09
2022-12-27T01:41:36.489Z,6.06
2022-12-27T01:44:43.401Z,6.02
2022-12-27T01:47:28.224Z,5.94
2022-12-27T01:49:54.898Z,5.91
2022-12-27T01:52:25.729Z,5.92
2022-12-27T01:54:56.982Z,5.93
2022-12-27T01:57:23.573Z,5.93
2022-12-27T01:59:50.238Z,5.94
2022-12-27T02:02:17.047Z,5.93
2022-12-27T02:04:45.126Z,5.94
2022-12-27T02:07:11.691Z,5.92
2022-12-27T02:09:46.252Z,5.91
2022-12-27T02:12:13.227Z,5.90
2022-12-27T02:14:45.704Z,5.90
2022-12-27T02:17:33.228Z,5.92
2022-12-27T02:20:11.662Z,5.89
2022-12-27T02:23:39.678Z,5.88
2022-12-27T02:26:21.711Z,5.81
2022-12-27T02:29:09.036Z,5.77
2022-12-27T02:31:47.173Z,5.73
2022-12-27T02:34:22.318Z,5.70
2022-12-27T02:36:52.524Z,5.66
2022-12-27T02:39:22.208Z,5.62
2022-12-27T02:42:07.889Z,5.59
2022-12-27T02:44:53.241Z,5.55
2022-12-27T02:47:41.750Z,5.48
2022-12-27T02:50:30.436Z,5.41
2022-12-27T02:53:29.363Z,5.34
2022-12-27T02:56:26.106Z,5.24
2022-12-27T02:59:17.429Z,5.17
2022-12-27T03:02:06.100Z,5.11
2022-12-27T03:04:45.266Z,5.06
2022-12-27T03:07:46.554Z,5.03
2022-12-27T03:10:51.695Z,4.96
2022-12-27T03:13:50.588Z,4.87
2022-12-27T03:16:23.857Z,4.80
2022-12-27T03:19:39.877Z,4.80
2022-12-27T03:22:27.086Z,4.75
2022-12-27T03:25:15.560Z,4.73
2022-12-27T03:27:45.551Z,4.72
2022-12-27T03:30:51.556Z,4.73
2022-12-27T03:33:18.776Z,4.69
2022-12-27T03:36:09.462Z,4.69
2022-12-27T03:38:46.552Z,4.64
2022-12-27T03:41:38.931Z,4.63
2022-12-27T03:44:23.598Z,4.59
2022-12-27T03:47:05.337Z,4.57
2022-12-27T03:49:38.718Z,4.54
2022-12-27T03:52:16.323Z,4.54
2022-12-27T03:54:45.010Z,4.52
2022-12-27T03:57:15.135Z,4.52
2022-12-27T03:59:42.385Z,4.52
2022-12-27T04:02:09.637Z,4.53
2022-12-27T04:04:37.088Z,4.53
2022-12-27T04:07:04.951Z,4.53
2022-12-27T04:09:50.367Z,4.53
2022-12-27T04:12:35.713Z,4.52
2022-12-27T04:15:21.287Z,4.50
2022-12-27T04:18:06.351Z,4.49
2022-12-27T04:20:51.387Z,4.47
2022-12-27T04:23:36.387Z,4.42
2022-12-27T04:26:21.960Z,4.40
2022-12-27T04:29:06.957Z,4.37
2022-12-27T04:31:52.723Z,4.39
2022-12-27T04:34:38.402Z,4.40
2022-12-27T04:37:05.185Z,4.42
2022-12-27T04:39:32.091Z,4.44
2022-12-27T04:42:17.328Z,4.47
2022-12-27T04:44:44.838Z,4.48
2022-12-27T04:47:35.261Z,4.52
2022-12-27T04:50:22.023Z,4.53
2022-12-27T04:53:07.920Z,4.53
2022-12-27T04:55:34.582Z,4.50
2022-12-27T04:58:01.592Z,4.49
2022-12-27T05:00:48.722Z,4.48
2022-12-27T05:03:18.548Z,4.44
2022-12-27T05:05:46.497Z,4.47
2022-12-27T05:08:34.583Z,4.49
2022-12-27T05:11:19.873Z,4.50
2022-12-27T05:13:59.084Z,4.49
2022-12-27T05:16:26.794Z,4.51
2022-12-27T05:18:53.843Z,4.52
2022-12-27T05:21:20.598Z,4.55
2022-12-27T05:24:06.027Z,4.55
2022-12-27T05:26:33.735Z,4.56
2022-12-27T05:29:01.280Z,4.57
2022-12-27T05:31:29.006Z,4.59
2022-12-27T05:33:56.424Z,4.59
2022-12-27T05:36:23.440Z,4.57
2022-12-27T05:38:51.112Z,4.54
2022-12-27T05:41:18.388Z,4.52
2022-12-27T05:43:45.091Z,4.51
2022-12-27T05:46:14.836Z,4.50
2022-12-27T05:48:42.192Z,4.48
2022-12-27T05:51:15.347Z,4.46
2022-12-27T05:53:42.211Z,4.43
2022-12-27T05:56:13.694Z,4.42
2022-12-27T05:58:40.617Z,4.39
2022-12-27T06:01:09.576Z,4.40
2022-12-27T06:03:37.054Z,4.41
2022-12-27T06:06:05.021Z,4.42
2022-12-27T06:08:32.498Z,4.43
2022-12-27T06:11:19.378Z,4.44
2022-12-27T06:13:51.865Z,4.43
2022-12-27T06:16:20.288Z,4.44
2022-12-27T06:18:47.392Z,4.47
2022-12-27T06:21:16.866Z,4.50
2022-12-27T06:23:44.973Z,4.51
2022-12-27T06:26:33.181Z,4.52
2022-12-27T06:29:00.230Z,4.47
2022-12-27T06:31:27.579Z,4.47
2022-12-27T06:33:54.906Z,4.45
2022-12-27T06:36:27.038Z,4.43
2022-12-27T06:38:53.702Z,4.43
2022-12-27T06:41:20.686Z,4.45
2022-12-27T06:43:48.194Z,4.46
2022-12-27T06:46:17.987Z,4.47
2022-12-27T06:48:46.031Z,4.49
2022-12-27T06:51:13.971Z,4.50
2022-12-27T06:53:41.317Z,4.51
2022-12-27T06:56:14.021Z,4.50
2022-12-27T06:58:40.663Z,4.48
2022-12-27T07:01:19.521Z,4.46
2022-12-27T07:03:55.337Z,4.45
2022-12-27T07:06:24.123Z,4.42
2022-12-27T07:08:51.394Z,4.39
2022-12-27T07:11:19.661Z,4.38
2022-12-27T07:13:49.887Z,4.38
2022-12-27T07:16:20.363Z,4.38
2022-12-27T07:18:49.686Z,4.38
2022-12-27T07:21:20.279Z,4.39
2022-12-27T07:23:47.236Z,4.39
2022-12-27T07:26:27.322Z,4.42
2022-12-27T07:28:55.495Z,4.44
2022-12-27T07:31:24.263Z,4.44
2022-12-27T07:33:51.736Z,4.47
2022-12-27T07:36:25.014Z,4.51
2022-12-27T07:38:52.044Z,4.53
2022-12-27T07:41:19.246Z,4.56
2022-12-27T07:43:46.703Z,4.59
2022-12-27T07:46:16.270Z,4.64
2022-12-27T07:48:44.071Z,4.68
2022-12-27T07:51:11.608Z,4.74
2022-12-27T07:53:38.447Z,4.78
2022-12-27T07:56:11.034Z,4.84
2022-12-27T07:58:43.430Z,4.88
2022-12-27T08:01:12.862Z,4.91
2022-12-27T08:03:40.665Z,4.92
2022-12-27T08:06:15.161Z,4.93
2022-12-27T08:08:43.544Z,4.96
2022-12-27T08:11:10.704Z,4.99
2022-12-27T08:13:37.502Z,5.02
2022-12-27T08:16:04.812Z,5.07
2022-12-27T08:18:32.665Z,5.10
2022-12-27T08:20:59.751Z,5.13
2022-12-27T08:23:26.314Z,5.16
2022-12-27T08:25:52.889Z,5.20
2022-12-27T08:28:19.734Z,5.23
2022-12-27T08:30:46.810Z,5.26
2022-12-27T08:33:14.730Z,5.28
2022-12-27T08:35:53.613Z,5.26
2022-12-27T08:38:20.949Z,5.29
2022-12-27T08:40:47.698Z,5.31
2022-12-27T08:43:14.907Z,5.35
2022-12-27T08:45:41.764Z,5.38
2022-12-27T08:48:08.892Z,5.40
2022-12-27T08:50:35.649Z,5.42
2022-12-27T08:53:04.089Z,5.42
2022-12-27T08:55:32.289Z,5.44
2022-12-27T08:57:59.755Z,5.47
2022-12-27T09:00:27.443Z,5.53
2022-12-27T09:02:54.499Z,5.56
2022-12-27T09:05:23.431Z,5.57
2022-12-27T09:07:50.613Z,5.57
2022-12-27T09:10:18.079Z,5.59
2022-12-27T09:12:45.382Z,5.62
2022-12-27T09:15:12.643Z,5.62
2022-12-27T09:17:39.671Z,5.63
2022-12-27T09:20:07.398Z,5.65
2022-12-27T09:22:34.113Z,5.69
2022-12-27T09:25:00.840Z,5.72
2022-12-27T09:27:27.696Z,5.78
2022-12-27T09:29:54.327Z,5.85
2022-12-27T09:32:20.913Z,5.91
2022-12-27T09:34:47.607Z,5.95
2022-12-27T09:37:14.239Z,5.98
2022-12-27T09:39:40.784Z,6.03
2022-12-27T09:45:25.576Z,6.12
2022-12-27T09:48:09.644Z,6.14
2022-12-27T09:50:54.215Z,6.15
2022-12-27T09:53:28.207Z,6.15
2022-12-27T09:55:58.650Z,6.15
2022-12-27T09:58:49.289Z,6.18
2022-12-27T10:01:28.092Z,6.16
2022-12-27T10:03:55.014Z,6.17
2022-12-27T10:06:42.933Z,6.21
2022-12-27T10:09:42.231Z,6.19
2022-12-27T10:12:20.890Z,6.16
2022-12-27T10:15:26.662Z,6.16
2022-12-27T10:18:14.284Z,6.10
2022-12-27T10:21:18.174Z,6.10
2022-12-27T10:23:52.091Z,6.07
2022-12-27T10:26:19.804Z,6.06
2022-12-27T10:28:57.113Z,6.08
2022-12-27T10:31:25.350Z,6.08
2022-12-27T10:33:52.754Z,6.10
2022-12-27T10:36:26.920Z,6.11
2022-12-27T10:38:54.526Z,6.12
2022-12-27T10:41:33.182Z,6.16
2022-12-27T10:43:59.956Z,6.17
2022-12-27T10:46:32.986Z,6.19
2022-12-27T10:49:23.517Z,6.18
2022-12-27T10:51:52.769Z,6.12
2022-12-27T10:54:28.571Z,6.12
2022-12-27T10:56:57.041Z,6.11
2022-12-27T10:59:26.226Z,6.10
2022-12-27T11:02:02.393Z,6.09
2022-12-27T11:04:30.759Z,6.09
2022-12-27T11:07:03.244Z,6.10
2022-12-27T11:09:34.230Z,6.09
2022-12-27T11:12:19.127Z,6.08
2022-12-27T11:14:58.047Z,6.03
2022-12-27T11:17:38.532Z,6.03
2022-12-27T11:20:11.792Z,6.02
2022-12-27T11:22:48.709Z,6.01
2022-12-27T11:25:15.831Z,6.00
2022-12-27T11:27:47.997Z,6.03
2022-12-27T11:30:50.110Z,6.04
2022-12-27T11:33:27.206Z,6.01
2022-12-27T11:35:56.469Z,6.04
2022-12-27T11:38:27.114Z,6.05
2022-12-27T11:41:00.761Z,6.06
2022-12-27T11:43:32.802Z,6.03
2022-12-27T11:46:02.981Z,6.05
2022-12-27T11:48:41.594Z,6.04
2022-12-27T11:51:29.737Z,6.02
2022-12-27T11:54:05.484Z,5.98
2022-12-27T11:56:36.341Z,5.97
2022-12-27T11:59:30.541Z,5.94
2022-12-27T12:02:12.384Z,5.90
2022-12-27T12:04:53.949Z,5.89
2022-12-27T12:07:27.280Z,5.90
2022-12-27T12:10:06.039Z,5.90
2022-12-27T12:12:38.677Z,5.92
2022-12-27T12:15:33.206Z,5.91
2022-12-27T12:18:23.629Z,5.90
2022-12-27T12:21:09.812Z,5.88
2022-12-27T12:24:00.679Z,5.87
2022-12-27T12:26:37.729Z,5.87
2022-12-27T12:29:10.399Z,5.86
2022-12-27T12:31:55.653Z,5.88
2022-12-27T12:34:44.156Z,5.89
2022-12-27T12:37:18.927Z,5.88
2022-12-27T12:40:14.415Z,5.88
2022-12-27T12:42:50.105Z,5.87
2022-12-27T12:45:36.036Z,5.89
2022-12-27T12:48:21.246Z,5.87
2022-12-27T12:51:11.831Z,5.86
2022-12-27T12:53:58.351Z,5.85
2022-12-27T12:56:49.355Z,5.81
2022-12-27T12:59:28.670Z,5.80
2022-12-27T13:02:04.330Z,5.84
2022-12-27T13:05:08.669Z,5.89
2022-12-27T13:07:40.708Z,5.88
2022-12-27T13:10:44.852Z,5.91
2022-12-27T13:13:25.660Z,5.88
2022-12-27T13:16:31.437Z,5.86
2022-12-27T13:19:16.439Z,5.81
2022-12-27T13:22:07.999Z,5.84
2022-12-27T13:24:53.037Z,5.86
2022-12-27T13:27:25.406Z,5.91
2022-12-27T13:30:03.021Z,5.97
2022-12-27T13:32:54.052Z,6.02
2022-12-27T13:35:45.658Z,6.04
2022-12-27T13:38:38.472Z,6.03
2022-12-27T13:41:11.115Z,6.01
2022-12-27T13:43:56.063Z,5.99
2022-12-27T13:47:00.624Z,5.97
2022-12-27T13:50:04.185Z,5.95
2022-12-27T13:52:48.017Z,5.90
2022-12-27T13:55:29.651Z,5.89
2022-12-27T13:58:31.440Z,5.90
2022-12-27T14:01:10.295Z,5.89
2022-12-27T14:03:45.553Z,5.90
2022-12-27T14:06:44.201Z,5.91
2022-12-27T14:09:22.836Z,5.91
2022-12-27T14:12:08.320Z,5.93
2022-12-27T14:14:38.897Z,5.94
2022-12-27T14:17:11.353Z,5.97
2022-12-27T14:20:19.164Z,5.97
2022-12-27T14:22:55.336Z,5.93
2022-12-27T14:26:03.585Z,5.95
2022-12-27T14:28:39.441Z,5.92
2022-12-27T14:31:18.229Z,5.93
2022-12-27T14:34:03.362Z,5.92
2022-12-27T14:36:57.600Z,5.91
2022-12-27T14:39:29.927Z,5.89
2022-12-27T14:42:26.938Z,5.89
2022-12-27T14:45:27.026Z,5.86
2022-12-27T14:47:59.359Z,5.85
2022-12-27T14:50:34.939Z,5.87
2022-12-27T14:53:35.551Z,5.88
2022-12-27T14:56:24.914Z,5.86
2022-12-27T14:58:54.577Z,5.84
2022-12-27T15:01:58.079Z,5.84
2022-12-27T15:04:43.549Z,5.80
2022-12-27T15:07:38.904Z,5.78
2022-12-27T15:10:27.208Z,5.75
2022-12-27T15:13:10.689Z,5.70
2022-12-27T15:15:51.817Z,5.70
2022-12-27T15:18:36.862Z,5.70
2022-12-27T15:21:18.448Z,5.69
2022-12-27T15:24:11.178Z,5.68
2022-12-27T15:27:04.157Z,5.67
2022-12-27T15:29:46.228Z,5.63
2022-12-27T15:32:35.352Z,5.64
2022-12-27T15:35:16.508Z,5.64
2022-12-27T15:38:03.879Z,5.67
2022-12-27T15:40:33.503Z,5.67
2022-12-27T15:43:31.099Z,5.69
2022-12-27T15:46:17.458Z,5.66
2022-12-27T15:49:10.323Z,5.65
2022-12-27T15:52:00.967Z,5.63
2022-12-27T15:54:30.035Z,5.59
2022-12-27T15:57:34.303Z,5.59
2022-12-27T16:00:14.023Z,5.58
2022-12-27T16:02:43.332Z,5.58
2022-12-27T16:05:12.899Z,5.57
2022-12-27T16:07:44.853Z,5.57
2022-12-27T16:10:35.612Z,5.54
2022-12-27T16:13:11.095Z,5.49
2022-12-27T16:15:44.318Z,5.50
2022-12-27T16:18:23.073Z,5.51
2022-12-27T16:20:55.574Z,5.49
2022-12-27T16:23:24.862Z,5.47
2022-12-27T16:26:06.249Z,5.50
2022-12-27T16:28:35.909Z,5.45
2022-12-27T16:31:09.433Z,5.43
2022-12-27T16:33:39.528Z,5.42
2022-12-27T16:36:20.921Z,5.39
2022-12-27T16:39:15.197Z,5.30
2022-12-27T16:41:54.339Z,5.26
2022-12-27T16:44:26.749Z,5.25
2022-12-27T16:46:56.430Z,5.23
2022-12-27T16:49:46.182Z,5.22
2022-12-27T16:52:12.814Z,5.14
2022-12-27T16:54:55.027Z,5.10
2022-12-27T16:57:37.117Z,5.05
2022-12-27T17:00:12.752Z,5.01
2022-12-27T17:02:39.592Z,4.97
2022-12-27T17:05:15.787Z,4.95
2022-12-27T17:07:57.589Z,4.92
2022-12-27T17:10:27.259Z,4.88
2022-12-27T17:13:02.416Z,4.85
2022-12-27T17:15:31.086Z,4.79
2022-12-27T17:18:07.506Z,4.78
2022-12-27T17:20:38.337Z,4.76
2022-12-27T17:23:05.334Z,4.75
2022-12-27T17:25:49.208Z,4.74
2022-12-27T17:28:32.055Z,4.65
2022-12-27T17:31:18.577Z,4.47
2022-12-27T17:34:02.303Z,4.46
2022-12-27T17:36:49.730Z,4.45
2022-12-27T17:39:24.592Z,4.42
2022-12-27T17:42:43.755Z,4.41
2022-12-27T17:45:39.693Z,4.35
2022-12-27T17:48:30.034Z,4.31
2022-12-27T17:51:07.216Z,4.27
2022-12-27T17:53:53.656Z,4.27
2022-12-27T17:56:43.356Z,4.23
2022-12-27T17:59:14.067Z,4.19
2022-12-27T18:01:51.581Z,4.18
2022-12-27T18:04:23.029Z,4.17
2022-12-27T18:07:00.501Z,4.19
2022-12-27T18:09:34.096Z,4.20
2022-12-27T18:12:30.767Z,4.20
2022-12-27T18:15:05.528Z,4.18
2022-12-27T18:17:38.451Z,4.22
2022-12-27T18:20:30.080Z,4.23
2022-12-27T18:23:03.049Z,4.24
2022-12-27T18:25:55.324Z,4.24
2022-12-27T18:28:34.537Z,4.21
2022-12-27T18:31:44.708Z,4.19
2022-12-27T18:34:21.866Z,4.12
2022-12-27T18:36:59.181Z,4.10
2022-12-27T18:39:32.147Z,4.06
2022-12-27T18:42:04.502Z,4.03
2022-12-27T18:44:46.535Z,4.01
2022-12-27T18:47:22.320Z,3.96
2022-12-27T18:49:59.769Z,3.93
2022-12-27T18:52:34.908Z,3.90
2022-12-27T18:55:20.789Z,3.87
2022-12-27T18:57:48.800Z,3.82
2022-12-27T19:00:25.844Z,3.81
2022-12-27T19:02:55.310Z,3.77
2022-12-27T19:05:29.451Z,3.75
2022-12-27T19:08:17.066Z,3.72
2022-12-27T19:10:50.481Z,3.66
2022-12-27T19:13:23.560Z,3.62
2022-12-27T19:15:53.830Z,3.58
2022-12-27T19:18:35.298Z,3.54
2022-12-27T19:21:05.792Z,3.51
2022-12-27T19:23:37.119Z,3.49
2022-12-27T19:26:21.397Z,3.49
2022-12-27T19:29:14.596Z,3.48
2022-12-27T19:31:51.299Z,3.44
2022-12-27T19:34:21.427Z,3.44
2022-12-27T19:36:50.332Z,3.45
2022-12-27T19:39:30.472Z,3.46
2022-12-27T19:42:01.723Z,3.46
2022-12-27T19:44:30.195Z,3.49
2022-12-27T19:46:58.786Z,3.52
2022-12-27T19:49:43.991Z,3.57
2022-12-27T19:52:21.608Z,3.59
2022-12-27T19:54:51.458Z,3.62
2022-12-27T19:57:19.954Z,3.64
2022-12-27T19:59:48.111Z,3.64
2022-12-27T20:02:18.441Z,3.65
2022-12-27T20:04:46.546Z,3.65
2022-12-27T20:07:21.547Z,3.66
2022-12-27T20:09:49.665Z,3.64
2022-12-27T20:12:17.975Z,3.62
2022-12-27T20:14:47.610Z,3.61
2022-12-27T20:17:15.879Z,3.61
2022-12-27T20:19:43.864Z,3.60
2022-12-27T20:22:11.914Z,3.60
2022-12-27T20:24:40.002Z,3.59
2022-12-27T20:27:08.094Z,3.57
2022-12-27T20:29:36.146Z,3.53
2022-12-27T20:32:04.346Z,3.49
2022-12-27T20:34:32.484Z,3.47
2022-12-27T20:37:00.709Z,3.43
2022-12-27T20:39:28.828Z,3.41
2022-12-27T20:41:56.826Z,3.38
2022-12-27T20:44:24.851Z,3.34
2022-12-27T20:46:53.128Z,3.31
2022-12-27T20:49:21.206Z,3.28
2022-12-27T20:51:49.278Z,3.25
2022-12-27T20:54:17.559Z,3.23
2022-12-27T20:56:45.591Z,3.21
2022-12-27T20:59:13.888Z,3.18
2022-12-27T21:01:42.599Z,3.14
2022-12-27T21:04:11.153Z,3.10
2022-12-27T21:06:39.336Z,3.05
2022-12-27T21:09:08.854Z,3.02
2022-12-27T21:11:37.065Z,2.97
2022-12-27T21:14:05.789Z,2.94
2022-12-27T21:16:35.968Z,2.90
2022-12-27T21:19:05.547Z,2.87
2022-12-27T21:21:37.338Z,2.85
2022-12-27T21:24:07.140Z,2.86
2022-12-27T21:26:38.024Z,2.86
2022-12-27T21:29:09.252Z,2.86
2022-12-27T21:31:38.259Z,2.86
2022-12-27T21:34:08.009Z,2.84
2022-12-27T21:36:36.971Z,2.82
2022-12-27T21:39:06.832Z,2.81
2022-12-27T21:41:39.957Z,2.77
2022-12-27T21:44:08.144Z,2.75
2022-12-27T21:46:39.007Z,2.72
2022-12-27T21:49:15.090Z,2.69
2022-12-27T21:51:44.037Z,2.66
2022-12-27T21:54:14.068Z,2.65
2022-12-27T21:56:42.671Z,2.63
2022-12-27T21:59:12.042Z,2.60
2022-12-27T22:01:50.369Z,2.59
2022-12-27T22:04:21.659Z,2.56
2022-12-27T22:06:50.154Z,2.53
2022-12-27T22:09:19.528Z,2.50
2022-12-27T22:11:48.032Z,2.45
2022-12-27T22:14:16.661Z,2.39
2022-12-27T22:16:44.634Z,2.36
2022-12-27T22:19:13.582Z,2.32
2022-12-27T22:21:42.746Z,2.27
2022-12-27T22:24:19.536Z,2.22
2022-12-27T22:26:48.866Z,2.16
2022-12-27T22:29:17.927Z,2.14
2022-12-27T22:31:46.851Z,2.12
2022-12-27T22:34:14.967Z,2.07
2022-12-27T22:36:43.913Z,2.02
2022-12-27T22:39:11.979Z,1.95
2022-12-27T22:41:39.969Z,1.89
2022-12-27T22:44:11.702Z,1.85
2022-12-27T22:49:29.038Z,1.74
2022-12-27T22:51:57.207Z,1.71
2022-12-27T22:55:03.284Z,1.69
2022-12-27T22:57:13.466Z,1.67
2022-12-27T22:59:41.499Z,1.66
2022-12-27T23:02:09.623Z,1.68
2022-12-27T23:04:37.670Z,1.68
2022-12-27T23:07:06.097Z,1.66
2022-12-27T23:09:39.288Z,1.67
2022-12-27T23:12:11.756Z,1.68
2022-12-27T23:14:40.363Z,1.71
2022-12-27T23:17:08.417Z,1.74
2022-12-27T23:19:36.392Z,1.75
2022-12-27T23:22:04.441Z,1.77
2022-12-27T23:24:33.146Z,1.76
2022-12-27T23:27:01.256Z,1.78
2022-12-27T23:29:29.566Z,1.78
2022-12-27T23:31:57.606Z,1.80
2022-12-27T23:34:29.258Z,1.83
2022-12-27T23:36:58.500Z,1.87
2022-12-27T23:39:26.831Z,1.92
2022-12-27T23:41:55.393Z,1.94
2022-12-27T23:44:33.028Z,1.96
2022-12-27T23:47:06.034Z,1.99
2022-12-27T23:49:34.929Z,2.03
2022-12-27T23:52:03.779Z,2.07
2022-12-27T23:54:32.036Z,2.11
2022-12-27T23:57:19.399Z,2.16
2022-12-27T23:59:49.659Z,2.20
